Time;durP1;ratioP1;P1;durP2;ratioP2;P2;SDS_P1;SDS_P2;PMS_P1;PMS_P2;Temp;Humidity;BMP_temperature;BMP_pressure;BME280_temperature;BME280_humidity;BME280_pressure;Samples;Min_cycle;Max_cycle;Signal;HPM_P1;HPM_P2
2021/07/02 00:00:19;;;;;;;6.07;3.40;;;;;;;20.60;56.65;101605.63;5035733;28;20271;-59
2021/07/02 00:02:45;;;;;;;5.63;3.10;;;;;;;20.59;56.80;101614.56;5036344;28;20026;-60
2021/07/02 00:05:15;;;;;;;6.53;3.70;;;;;;;20.58;56.56;101605.75;5035622;28;20018;-59
2021/07/02 00:07:40;;;;;;;7.00;4.20;;;;;;;20.57;56.75;101609.38;5036610;28;20025;-59
2021/07/02 00:10:12;;;;;;;7.93;4.28;;;;;;;20.58;56.50;101602.28;5036171;28;20022;-58
2021/07/02 00:12:37;;;;;;;6.80;3.50;;;;;;;20.56;56.58;101599.75;5035173;28;20037;-59
2021/07/02 00:15:04;;;;;;;5.68;3.28;;;;;;;20.57;56.60;101600.56;5036387;28;20469;-58
2021/07/02 00:17:30;;;;;;;7.40;3.50;;;;;;;20.56;56.55;101598.91;5036065;28;20025;-59
2021/07/02 00:19:55;;;;;;;8.63;3.65;;;;;;;20.55;56.45;101603.34;5035614;28;20028;-58
2021/07/02 00:22:20;;;;;;;5.70;3.70;;;;;;;20.55;56.42;101594.56;5035696;28;20473;-59
2021/07/02 00:24:45;;;;;;;8.37;3.80;;;;;;;20.53;56.33;101596.50;5036130;28;20045;-59
2021/07/02 00:27:11;;;;;;;6.57;3.50;;;;;;;20.53;56.51;101585.91;5035367;28;20827;-59
2021/07/02 00:29:37;;;;;;;6.95;3.30;;;;;;;20.53;56.37;101594.69;5036068;28;20729;-59
2021/07/02 00:32:03;;;;;;;6.35;3.67;;;;;;;20.53;56.44;101591.22;5036133;28;20045;-59
2021/07/02 00:34:28;;;;;;;7.55;3.60;;;;;;;20.53;56.15;101596.50;5035277;28;20365;-60
2021/07/02 00:36:53;;;;;;;6.63;3.60;;;;;;;20.52;56.22;101589.50;5035907;28;20028;-60
2021/07/02 00:39:18;;;;;;;6.10;3.67;;;;;;;20.50;56.17;101586.16;5035433;28;20029;-59
2021/07/02 00:41:44;;;;;;;7.00;4.07;;;;;;;20.48;56.24;101581.81;5035468;28;20633;-60
2021/07/02 00:44:09;;;;;;;5.45;3.40;;;;;;;20.49;56.23;101593.28;5035779;28;20584;-59
2021/07/02 00:46:36;;;;;;;5.30;3.67;;;;;;;20.50;56.24;101587.00;5035540;28;20056;-58
2021/07/02 00:49:04;;;;;;;6.75;3.80;;;;;;;20.48;55.96;101595.06;5035134;28;20045;-59
2021/07/02 00:51:31;;;;;;;8.05;3.72;;;;;;;20.48;56.25;101586.28;5035308;28;20025;-59
2021/07/02 00:54:01;;;;;;;6.28;3.65;;;;;;;20.47;56.07;101588.09;5035372;28;20099;-60
2021/07/02 00:56:26;;;;;;;6.53;4.00;;;;;;;20.47;56.30;101590.75;5034415;28;20030;-59
2021/07/02 00:58:52;;;;;;;6.65;4.20;;;;;;;20.47;55.98;101587.22;5035103;28;20041;-59
2021/07/02 01:01:17;;;;;;;6.00;3.65;;;;;;;20.46;55.96;101583.75;5034263;28;20026;-61
2021/07/02 01:03:44;;;;;;;7.15;3.95;;;;;;;20.46;55.76;101589.03;5034396;28;20484;-59
2021/07/02 01:06:11;;;;;;;5.43;3.50;;;;;;;20.46;55.99;101582.91;5034695;28;20017;-60
2021/07/02 01:08:36;;;;;;;5.97;3.85;;;;;;;20.45;56.02;101583.88;5034019;28;20021;-59
2021/07/02 01:11:02;;;;;;;6.75;3.55;;;;;;;20.45;55.93;101575.94;5035047;28;20040;-60
2021/07/02 01:13:28;;;;;;;6.22;3.47;;;;;;;20.45;55.75;101573.28;5034627;28;20034;-60
2021/07/02 01:16:00;;;;;;;6.57;4.10;;;;;;;20.44;55.81;101577.75;5034033;28;20477;-58
2021/07/02 01:18:25;;;;;;;5.57;3.50;;;;;;;20.43;56.02;101577.88;5034165;28;20416;-59
2021/07/02 01:20:57;;;;;;;7.53;3.90;;;;;;;20.44;55.74;101575.09;5034448;28;20025;-60
2021/07/02 01:23:24;;;;;;;6.10;3.60;;;;;;;20.43;55.72;101581.34;5033740;28;20029;-60
2021/07/02 01:25:49;;;;;;;7.28;3.88;;;;;;;20.42;55.97;101579.66;5034252;28;20080;-59
2021/07/02 01:28:16;;;;;;;6.07;3.80;;;;;;;20.42;55.60;101577.00;5033881;28;20026;-60
2021/07/02 01:30:43;;;;;;;6.68;3.80;;;;;;;20.42;55.80;101579.66;5033617;28;20033;-60
2021/07/02 01:33:10;;;;;;;7.85;3.70;;;;;;;20.41;55.93;101588.56;5034260;28;20069;-59
2021/07/02 01:35:35;;;;;;;6.50;4.00;;;;;;;20.40;55.72;101580.75;5034141;28;20045;-61
2021/07/02 01:38:01;;;;;;;5.63;3.65;;;;;;;20.41;55.64;101579.78;5033637;28;20453;-60
2021/07/02 01:40:31;;;;;;;5.60;3.70;;;;;;;20.41;55.64;101577.13;5033936;28;20053;-60
2021/07/02 01:43:01;;;;;;;7.25;4.18;;;;;;;20.40;55.65;101575.47;5033954;28;20025;-59
2021/07/02 01:45:26;;;;;;;5.45;3.50;;;;;;;20.39;55.70;101579.06;5033353;28;20116;-63
2021/07/02 01:47:52;;;;;;;6.82;3.88;;;;;;;20.39;55.68;101579.06;5034502;28;20504;-62
2021/07/02 01:50:17;;;;;;;7.40;3.78;;;;;;;20.39;55.53;101577.25;5033963;28;20389;-61
2021/07/02 01:52:43;;;;;;;6.13;4.10;;;;;;;20.38;55.75;101572.94;5033814;28;20389;-60
2021/07/02 01:55:08;;;;;;;6.88;4.05;;;;;;;20.39;55.83;101579.06;5034461;28;20049;-62
2021/07/02 01:57:34;;;;;;;6.55;3.80;;;;;;;20.36;55.65;101566.06;5033067;28;20548;-59
2021/07/02 01:59:59;;;;;;;6.72;3.88;;;;;;;20.37;55.49;101571.25;5034300;28;20465;-64
2021/07/02 02:02:25;;;;;;;6.33;3.70;;;;;;;20.37;55.71;101575.69;5034056;28;20038;-59
2021/07/02 02:04:50;;;;;;;5.75;3.95;;;;;;;20.38;55.63;101569.47;5033469;28;20342;-62
2021/07/02 02:07:15;;;;;;;6.47;3.83;;;;;;;20.37;55.36;101565.94;5033845;28;20022;-58
2021/07/02 02:09:41;;;;;;;7.13;3.80;;;;;;;20.36;55.58;101569.56;5034008;28;20090;-59
2021/07/02 02:12:06;;;;;;;6.57;3.65;;;;;;;20.37;55.65;101570.41;5033240;28;20064;-58
2021/07/02 02:14:32;;;;;;;5.70;3.60;;;;;;;20.37;55.80;101565.13;5032614;28;20389;-59
2021/07/02 02:16:58;;;;;;;6.80;3.47;;;;;;;20.35;55.71;101561.75;5033579;28;20049;-59
2021/07/02 02:19:24;;;;;;;6.53;3.83;;;;;;;20.35;55.68;101559.94;5031921;28;20021;-59
2021/07/02 02:21:50;;;;;;;6.43;3.83;;;;;;;20.35;55.57;101561.75;5033142;28;20083;-59
2021/07/02 02:24:17;;;;;;;7.63;3.95;;;;;;;20.34;55.55;101566.19;5032635;28;20033;-59
2021/07/02 02:26:42;;;;;;;6.70;4.30;;;;;;;20.35;55.44;101559.13;5032191;28;20034;-58
2021/07/02 02:29:08;;;;;;;7.22;4.00;;;;;;;20.35;55.50;101567.06;5032925;28;20023;-59
2021/07/02 02:31:33;;;;;;;6.32;3.30;;;;;;;20.34;55.68;101563.53;5032345;28;20065;-59
2021/07/02 02:33:59;;;;;;;6.15;4.00;;;;;;;20.34;55.61;101568.00;5031811;28;20033;-60
2021/07/02 02:36:24;;;;;;;6.13;3.70;;;;;;;20.34;55.59;101568.84;5032583;28;20385;-59
2021/07/02 02:38:50;;;;;;;7.38;4.00;;;;;;;20.29;55.55;101555.97;5032853;28;20026;-59
2021/07/02 02:41:15;;;;;;;9.48;4.57;;;;;;;20.33;55.49;101559.22;5031708;28;20101;-59
2021/07/02 02:43:41;;;;;;;6.03;3.95;;;;;;;20.30;55.47;101549.72;5032727;28;20029;-59
2021/07/02 02:46:06;;;;;;;7.40;3.60;;;;;;;20.33;55.72;101545.13;5032547;28;20024;-59
2021/07/02 02:48:34;;;;;;;6.77;3.97;;;;;;;20.30;55.69;101549.72;5031338;28;20036;-59
2021/07/02 02:51:03;;;;;;;6.38;3.88;;;;;;;20.29;55.54;101548.03;5032777;28;20348;-59
2021/07/02 02:53:28;;;;;;;7.13;4.03;;;;;;;20.29;55.54;101541.91;5034181;28;20032;-58
2021/07/02 02:55:56;;;;;;;6.38;3.85;;;;;;;20.30;55.75;101547.06;5032792;28;20029;-58
2021/07/02 02:58:22;;;;;;;7.45;4.18;;;;;;;20.31;55.60;101547.91;5032473;28;20040;-58
2021/07/02 03:00:50;;;;;;;6.35;3.72;;;;;;;20.30;55.75;101554.19;5031816;28;20021;-59
2021/07/02 03:03:16;;;;;;;5.88;3.80;;;;;;;20.28;55.65;101545.50;5032432;28;20022;-59
2021/07/02 03:05:41;;;;;;;9.02;3.85;;;;;;;20.29;55.65;101550.66;5033215;28;20025;-59
2021/07/02 03:08:09;;;;;;;6.47;4.03;;;;;;;20.29;55.45;101549.84;5034261;28;20439;-59
2021/07/02 03:10:34;;;;;;;7.50;4.00;;;;;;;20.29;55.57;101555.13;5035764;28;20029;-60
2021/07/02 03:13:00;;;;;;;6.40;3.85;;;;;;;20.28;55.76;101551.66;5032445;28;20457;-58
2021/07/02 03:15:26;;;;;;;6.50;4.20;;;;;;;20.29;55.51;101552.47;5031220;28;20105;-59
2021/07/02 03:17:51;;;;;;;7.05;3.50;;;;;;;20.29;55.83;101555.13;5032316;28;20022;-58
2021/07/02 03:20:17;;;;;;;6.63;3.95;;;;;;;20.27;55.69;101549.97;5032113;28;20022;-58
2021/07/02 03:22:42;;;;;;;7.30;4.30;;;;;;;20.26;55.77;101555.38;5031507;28;20021;-58
2021/07/02 03:25:09;;;;;;;7.57;3.88;;;;;;;20.27;55.67;101552.59;5033213;28;20040;-59
2021/07/02 03:27:41;;;;;;;6.50;3.83;;;;;;;20.26;55.83;101550.91;5035893;28;20701;-59
2021/07/02 03:30:10;;;;;;;7.32;3.85;;;;;;;20.26;55.78;101550.91;5035365;28;20032;-59
2021/07/02 03:32:35;;;;;;;7.32;3.72;;;;;;;20.25;55.54;101551.91;5035473;28;20080;-57
2021/07/02 03:35:01;;;;;;;7.38;3.78;;;;;;;20.26;55.59;101548.25;5036157;28;20107;-58
2021/07/02 03:37:26;;;;;;;5.53;3.70;;;;;;;20.26;55.68;101558.03;5035353;28;20051;-58
2021/07/02 03:39:51;;;;;;;6.10;3.80;;;;;;;20.26;55.60;101558.03;5036203;28;20461;-58
2021/07/02 03:42:17;;;;;;;5.90;3.75;;;;;;;20.25;55.70;101557.19;5035609;28;20025;-58
2021/07/02 03:44:42;;;;;;;5.68;3.60;;;;;;;20.25;55.46;101564.25;5035252;28;20091;-58
2021/07/02 03:47:08;;;;;;;5.30;3.30;;;;;;;20.24;55.71;101560.78;5036037;28;20017;-60
2021/07/02 03:49:33;;;;;;;6.78;3.72;;;;;;;20.24;56.16;101563.44;5035638;28;20176;-59
2021/07/02 03:51:59;;;;;;;6.13;3.58;;;;;;;20.26;55.68;101571.25;5034979;28;20083;-59
2021/07/02 03:54:24;;;;;;;7.45;3.83;;;;;;;20.24;55.66;101566.06;5035363;28;20025;-59
2021/07/02 03:59:33;;;;;;;7.10;3.93;;;;;;;20.23;55.83;101564.38;5035713;28;20328;-60
2021/07/02 04:01:58;;;;;;;6.97;3.78;;;;;;;20.24;55.59;101565.25;5035688;28;20021;-59
2021/07/02 04:04:24;;;;;;;6.47;3.80;;;;;;;20.24;55.80;101570.53;5034635;28;20469;-60
2021/07/02 04:06:49;;;;;;;7.32;4.10;;;;;;;20.23;55.82;101564.38;5035660;28;20026;-58
2021/07/02 04:09:14;;;;;;;7.28;3.80;;;;;;;20.24;55.88;101568.72;5035043;28;20029;-59
2021/07/02 04:11:40;;;;;;;6.32;3.70;;;;;;;20.22;55.66;101569.78;5034616;28;20022;-58
2021/07/02 04:14:05;;;;;;;6.07;3.63;;;;;;;20.22;55.82;101565.38;5035270;28;20410;-60
2021/07/02 04:16:31;;;;;;;7.20;3.58;;;;;;;20.23;55.68;101566.19;5034922;28;20454;-60
2021/07/02 04:18:56;;;;;;;7.32;3.67;;;;;;;20.23;55.68;101567.03;5034610;28;20022;-59
2021/07/02 04:21:22;;;;;;;7.18;4.00;;;;;;;20.23;55.69;101572.31;5034980;28;20068;-59
2021/07/02 04:23:47;;;;;;;6.00;3.85;;;;;;;20.23;55.61;101574.13;5034915;28;20111;-59
2021/07/02 04:26:12;;;;;;;6.43;4.00;;;;;;;20.21;55.82;101566.31;5034256;28;20067;-58
2021/07/02 04:28:37;;;;;;;7.35;3.75;;;;;;;20.22;55.63;101564.50;5034692;28;20519;-58
2021/07/02 04:31:03;;;;;;;6.77;3.77;;;;;;;20.22;55.73;101568.00;5034883;28;20481;-58
2021/07/02 04:33:28;;;;;;;5.75;3.63;;;;;;;20.21;55.72;101566.31;5033851;28;20623;-58
2021/07/02 04:35:56;;;;;;;7.07;3.95;;;;;;;20.19;55.72;101559.47;5034981;28;20029;-58
2021/07/02 04:38:21;;;;;;;6.30;3.63;;;;;;;20.21;55.63;101566.31;5033800;28;20029;-59
2021/07/02 04:40:48;;;;;;;6.65;4.00;;;;;;;20.21;55.88;101566.31;5033961;28;20100;-59
2021/07/02 04:43:14;;;;;;;6.15;3.85;;;;;;;20.20;55.69;101574.38;5034727;28;20034;-58
2021/07/02 04:45:40;;;;;;;6.57;3.80;;;;;;;20.20;55.57;101569.09;5034553;28;20051;-58
2021/07/02 04:48:05;;;;;;;7.13;4.00;;;;;;;20.20;55.63;101571.72;5033952;28;20026;-58
2021/07/02 04:50:31;;;;;;;6.07;3.78;;;;;;;20.19;55.63;101565.59;5034293;28;20040;-58
2021/07/02 04:52:56;;;;;;;6.22;3.83;;;;;;;20.21;55.72;101562.84;5034324;28;20423;-58
2021/07/02 04:55:21;;;;;;;6.60;3.67;;;;;;;20.20;55.71;101561.16;5033844;28;20091;-58
2021/07/02 04:57:47;;;;;;;7.93;3.85;;;;;;;20.20;55.63;101556.72;5034508;28;20670;-58
2021/07/02 05:00:18;;;;;;;8.55;3.65;;;;;;;20.20;55.76;101562.00;5034684;28;20018;-59
2021/07/02 05:02:43;;;;;;;6.60;3.92;;;;;;;20.20;55.83;101566.44;5034310;28;20029;-58
2021/07/02 05:05:09;;;;;;;7.28;4.00;;;;;;;20.20;55.57;101564.66;5034397;28;20370;-59
2021/07/02 05:07:35;;;;;;;6.40;3.88;;;;;;;20.20;55.83;101559.38;5033188;28;20033;-59
2021/07/02 05:10:01;;;;;;;6.15;3.67;;;;;;;20.21;55.77;101560.19;5034403;28;20033;-59
2021/07/02 05:12:29;;;;;;;7.93;3.88;;;;;;;20.20;55.85;101556.72;5033737;28;20420;-59
2021/07/02 05:14:58;;;;;;;6.75;4.05;;;;;;;20.20;55.82;101556.72;5033495;28;20061;-59
2021/07/02 05:17:24;;;;;;;6.63;3.63;;;;;;;20.21;55.43;101560.19;5034129;28;20030;-59
2021/07/02 05:19:49;;;;;;;6.53;3.83;;;;;;;20.21;55.69;101557.53;5034160;28;20461;-59
2021/07/02 05:22:19;;;;;;;6.72;3.58;;;;;;;20.17;55.66;101556.97;5033017;28;20354;-59
2021/07/02 05:24:50;;;;;;;6.65;3.92;;;;;;;20.22;55.89;101562.72;5033936;28;20022;-60
2021/07/02 05:27:18;;;;;;;5.95;3.50;;;;;;;20.22;55.74;101560.06;5033718;28;20029;-58
2021/07/02 05:29:44;;;;;;;6.45;3.50;;;;;;;20.24;55.57;101568.72;5033128;28;20120;-59
2021/07/02 05:32:09;;;;;;;6.53;4.03;;;;;;;20.22;55.79;101554.78;5033582;28;20508;-59
2021/07/02 05:34:35;;;;;;;6.70;3.92;;;;;;;20.23;55.88;101566.19;5033606;28;20377;-59
2021/07/02 05:37:01;;;;;;;5.40;3.33;;;;;;;20.23;55.97;101568.84;5033086;28;20358;-59
2021/07/02 05:39:30;;;;;;;6.28;3.72;;;;;;;20.20;56.02;101564.66;5033319;28;20025;-59
2021/07/02 05:41:56;;;;;;;6.68;3.58;;;;;;;20.16;55.68;101557.91;5033737;28;20124;-58
2021/07/02 05:44:21;;;;;;;6.32;3.88;;;;;;;20.21;56.04;101573.44;5032678;28;20104;-57
2021/07/02 05:46:49;;;;;;;6.18;3.55;;;;;;;20.21;55.92;101573.44;5033520;28;20032;-58
2021/07/02 05:49:15;;;;;;;6.60;3.40;;;;;;;20.21;56.06;101578.72;5032218;28;20061;-59
2021/07/02 05:51:47;;;;;;;6.28;3.53;;;;;;;20.22;56.07;101578.59;5032690;28;20477;-59
2021/07/02 05:54:14;;;;;;;6.55;3.60;;;;;;;20.23;56.35;101576.78;5033211;28;20041;-59
2021/07/02 05:56:39;;;;;;;5.88;3.47;;;;;;;20.24;56.39;101583.78;5032708;28;20025;-59
2021/07/02 05:59:04;;;;;;;6.65;3.97;;;;;;;20.24;56.37;101581.97;5033260;28;20087;-59
2021/07/02 06:01:30;;;;;;;6.67;3.50;;;;;;;20.25;56.40;101582.78;5033019;28;20429;-59
2021/07/02 06:03:56;;;;;;;6.80;3.67;;;;;;;20.24;56.39;101586.41;5032542;28;20338;-59
2021/07/02 06:06:22;;;;;;;5.43;3.60;;;;;;;20.25;56.57;101586.31;5032759;28;20018;-58
2021/07/02 06:08:49;;;;;;;7.70;3.88;;;;;;;20.27;56.70;101587.00;5033024;28;20024;-59
2021/07/02 06:11:15;;;;;;;8.02;3.60;;;;;;;20.29;56.48;101592.19;5032125;28;20029;-60
2021/07/02 06:13:40;;;;;;;8.60;3.75;;;;;;;20.29;56.51;101589.53;5033032;28;20392;-60
2021/07/02 06:16:05;;;;;;;6.43;3.42;;;;;;;20.31;56.60;101598.19;5033114;28;20032;-59
2021/07/02 06:18:31;;;;;;;7.70;3.75;;;;;;;20.32;56.76;101596.41;5031975;28;20071;-59
2021/07/02 06:20:57;;;;;;;7.38;3.30;;;;;;;20.33;56.84;101603.38;5032938;28;20021;-58
2021/07/02 06:23:23;;;;;;;7.47;3.17;;;;;;;20.34;56.84;101603.25;5032790;28;20021;-58
2021/07/02 06:25:49;;;;;;;5.88;3.33;;;;;;;20.35;56.74;101602.28;5032042;28;20381;-59
2021/07/02 06:28:18;;;;;;;5.95;3.45;;;;;;;20.32;56.72;101593.75;5032740;28;20025;-58
2021/07/02 06:30:44;;;;;;;6.78;3.88;;;;;;;20.36;56.89;101603.13;5032776;28;20079;-59
2021/07/02 06:33:10;;;;;;;5.55;3.35;;;;;;;20.35;56.74;101599.66;5031993;28;20033;-60
2021/07/02 06:35:38;;;;;;;7.85;3.75;;;;;;;20.37;56.95;101603.00;5032273;28;20465;-59
2021/07/02 06:38:03;;;;;;;7.10;3.92;;;;;;;20.38;57.11;101609.16;5032953;28;20097;-59
2021/07/02 06:40:29;;;;;;;8.45;3.58;;;;;;;20.38;56.87;101620.59;5029849;28;20531;-60
2021/07/02 06:42:54;;;;;;;8.93;3.42;;;;;;;20.37;57.30;101612.75;5032808;28;20053;-59
2021/07/02 06:45:20;;;;;;;4.65;3.13;;;;;;;20.39;57.18;101616.97;5031942;28;20485;-57
2021/07/02 06:47:53;;;;;;;6.93;3.38;;;;;;;20.40;57.24;101613.34;5030302;28;20013;-60
2021/07/02 06:50:35;;;;;;;5.00;3.03;;;;;;;20.40;57.28;101612.53;5030633;28;20068;-57
2021/07/02 06:53:03;;;;;;;6.95;3.95;;;;;;;20.41;57.33;101620.34;5031834;28;20037;-59
2021/07/02 06:55:28;;;;;;;6.07;3.38;;;;;;;20.41;57.20;101624.78;5030968;28;20028;-57
2021/07/02 06:57:54;;;;;;;6.35;3.40;;;;;;;20.38;57.34;101615.28;5031949;28;20108;-58
2021/07/02 07:00:21;;;;;;;8.52;3.53;;;;;;;20.41;57.41;101622.13;5031227;28;20021;-59
2021/07/02 07:02:47;;;;;;;5.95;3.47;;;;;;;20.40;57.35;101621.28;5032363;28;20367;-57
2021/07/02 07:05:14;;;;;;;6.03;3.40;;;;;;;20.39;57.33;101624.06;5032314;28;20040;-57
2021/07/02 07:07:45;;;;;;;7.18;3.58;;;;;;;20.39;57.54;101616.97;5031726;28;20384;-56
2021/07/02 07:10:12;;;;;;;6.63;3.15;;;;;;;20.33;57.53;101609.53;5015209;28;20068;-57
2021/07/02 07:12:39;;;;;;;8.30;3.90;;;;;;;20.39;57.58;101618.78;5031937;28;20072;-57
2021/07/02 07:15:06;;;;;;;8.43;3.72;;;;;;;20.38;57.20;101615.28;5029907;28;20580;-58
2021/07/02 07:17:32;;;;;;;8.77;3.47;;;;;;;20.37;57.60;101603.00;5032029;28;20029;-58
2021/07/02 07:19:59;;;;;;;5.68;3.83;;;;;;;20.25;57.46;101596.03;5032226;28;20033;-58
2021/07/02 07:22:24;;;;;;;7.05;3.90;;;;;;;20.38;57.55;101614.47;5031062;28;20022;-57
2021/07/02 07:24:50;;;;;;;8.82;3.80;;;;;;;20.38;57.54;101622.41;5031874;28;20326;-57
2021/07/02 07:27:16;;;;;;;7.70;3.88;;;;;;;20.30;57.55;101607.94;5031745;28;20032;-57
2021/07/02 07:29:41;;;;;;;7.43;3.75;;;;;;;20.38;57.50;101614.47;5031156;28;20021;-56
2021/07/02 07:32:07;;;;;;;8.15;3.58;;;;;;;20.33;57.72;101613.97;5031730;28;20041;-57
2021/07/02 07:37:12;;;;;;;8.07;3.72;;;;;;;20.36;57.50;101622.53;5031101;28;20049;-58
2021/07/02 07:39:38;;;;;;;8.68;3.58;;;;;;;20.35;57.54;101627.94;5031719;28;20053;-57
2021/07/02 07:42:04;;;;;;;5.90;3.30;;;;;;;20.34;57.54;101627.06;5031758;28;20049;-57
2021/07/02 07:44:31;;;;;;;6.13;3.47;;;;;;;20.33;57.41;101620.13;5031774;28;20026;-58
2021/07/02 07:46:56;;;;;;;6.63;3.50;;;;;;;20.37;57.82;101631.28;5031654;28;20084;-57
2021/07/02 07:49:25;;;;;;;5.90;3.20;;;;;;;20.27;57.70;101621.41;5030841;28;20026;-55
2021/07/02 07:51:57;;;;;;;5.93;3.22;;;;;;;20.36;57.52;101626.94;5032078;28;20351;-56
2021/07/02 07:54:22;;;;;;;5.15;2.95;;;;;;;20.36;57.65;101635.75;5031463;28;20465;-58
2021/07/02 07:56:51;;;;;;;5.47;3.67;;;;;;;20.35;57.74;101630.59;5030839;28;20135;-58
2021/07/02 07:59:18;;;;;;;6.65;3.15;;;;;;;20.28;57.73;101625.75;5030175;28;20029;-58
2021/07/02 08:01:43;;;;;;;5.93;3.22;;;;;;;20.36;57.56;101632.25;5031927;28;20026;-58
2021/07/02 08:04:09;;;;;;;7.22;3.70;;;;;;;20.35;57.80;101630.59;5031126;28;20021;-58
2021/07/02 08:06:34;;;;;;;5.40;3.20;;;;;;;20.36;57.38;101633.09;5031307;28;20025;-58
2021/07/02 08:08:59;;;;;;;6.32;3.65;;;;;;;20.39;57.47;101634.66;5031642;28;20068;-58
2021/07/02 08:11:25;;;;;;;6.10;3.70;;;;;;;20.36;57.41;101629.59;5030794;28;20041;-57
2021/07/02 08:13:58;;;;;;;5.70;3.40;;;;;;;20.38;57.74;101628.53;5035268;28;20048;-58
2021/07/02 08:16:27;;;;;;;7.40;3.65;;;;;;;20.38;57.51;101630.34;5035289;28;20180;-57
2021/07/02 08:18:52;;;;;;;8.38;3.30;;;;;;;20.37;57.51;101626.00;5034570;28;20469;-56
2021/07/02 08:21:18;;;;;;;7.75;3.42;;;;;;;20.41;57.52;101632.72;5035164;28;20110;-59
2021/07/02 08:23:43;;;;;;;8.98;3.58;;;;;;;20.41;57.61;101638.88;5035247;28;20029;-58
2021/07/02 08:26:09;;;;;;;7.05;3.58;;;;;;;20.43;57.44;101642.25;5034759;28;20049;-58
2021/07/02 08:31:18;;;;;;;7.68;3.53;;;;;;;20.44;57.64;101637.78;5034575;28;20051;-59
2021/07/02 08:33:44;;;;;;;5.95;3.15;;;;;;;20.45;57.60;101632.34;5034852;28;20384;-57
2021/07/02 08:36:09;;;;;;;6.85;3.50;;;;;;;20.46;57.49;101638.53;5035287;28;20032;-58
2021/07/02 08:38:34;;;;;;;9.03;4.00;;;;;;;20.48;57.51;101636.59;5033989;28;20025;-60
2021/07/02 08:41:00;;;;;;;8.00;3.90;;;;;;;20.52;57.54;101637.19;5035424;28;20267;-60
2021/07/02 08:43:25;;;;;;;8.07;3.65;;;;;;;20.53;57.80;101630.94;5035286;28;20491;-58
2021/07/02 08:45:51;;;;;;;7.72;3.95;;;;;;;20.54;57.53;101636.09;5034144;28;20025;-59
2021/07/02 08:48:21;;;;;;;8.07;3.72;;;;;;;20.53;57.65;101645.00;5034572;28;20028;-59
2021/07/02 08:50:46;;;;;;;8.27;3.95;;;;;;;20.54;57.70;101643.22;5034783;28;20496;-59
2021/07/02 08:53:12;;;;;;;7.53;4.13;;;;;;;20.54;57.53;101644.03;5033860;28;20029;-59
2021/07/02 08:55:39;;;;;;;7.00;4.28;;;;;;;20.48;57.71;101640.06;5034358;28;20025;-59
2021/07/02 08:58:12;;;;;;;6.57;3.58;;;;;;;20.54;57.62;101651.16;5034747;28;20500;-59
2021/07/02 09:00:37;;;;;;;9.40;3.95;;;;;;;20.55;57.59;101656.31;5033764;28;20109;-58
2021/07/02 09:03:30;;;;;;;8.68;4.40;;;;;;;20.55;57.77;101660.75;5034848;28;20045;-59
2021/07/02 09:06:13;;;;;;;9.35;4.28;;;;;;;20.56;57.54;101657.16;5034651;28;20467;-60
2021/07/02 09:08:38;;;;;;;6.38;3.70;;;;;;;20.55;57.46;101658.13;5033565;28;20386;-59
2021/07/02 09:11:24;;;;;;;6.60;3.45;;;;;;;20.55;57.66;101661.59;5034890;28;20051;-59
2021/07/02 09:13:49;;;;;;;7.25;4.07;;;;;;;20.55;57.78;101661.59;5033520;28;20235;-60
2021/07/02 09:16:22;;;;;;;6.87;3.90;;;;;;;20.56;57.69;101671.25;4993483;28;20485;-59
2021/07/02 09:18:48;;;;;;;8.05;4.10;;;;;;;20.56;57.51;101675.69;5032781;28;20381;-60
2021/07/02 09:21:25;;;;;;;9.23;3.55;;;;;;;20.55;57.66;101672.19;5033508;28;20445;-60
2021/07/02 09:23:50;;;;;;;6.70;3.85;;;;;;;20.56;57.85;101673.88;5034097;28;20120;-59
2021/07/02 09:26:39;;;;;;;7.13;4.10;;;;;;;20.55;57.77;101674.00;5033791;28;20429;-59
2021/07/02 09:29:21;;;;;;;6.05;3.72;;;;;;;20.54;57.81;101667.88;5033353;28;20033;-59
2021/07/02 09:32:00;;;;;;;8.13;4.05;;;;;;;20.56;57.75;101675.69;5034064;28;20046;-60
2021/07/02 09:34:52;;;;;;;7.25;3.85;;;;;;;20.57;57.68;101678.22;5033517;28;20112;-60
2021/07/02 09:37:37;;;;;;;9.07;4.03;;;;;;;20.58;57.81;101681.72;5033865;28;20021;-59
2021/07/02 09:40:11;;;;;;;7.50;4.15;;;;;;;20.58;57.69;101687.00;5034091;28;20056;-61
2021/07/02 09:42:36;;;;;;;7.28;4.13;;;;;;;20.58;57.85;101681.72;5032861;28;20022;-59
2021/07/02 09:45:17;;;;;;;6.18;3.90;;;;;;;20.58;57.71;101684.38;5033703;28;20025;-60
2021/07/02 09:47:45;;;;;;;6.95;3.65;;;;;;;20.56;58.28;101686.28;5033572;28;20405;-59
2021/07/02 09:50:13;;;;;;;7.85;4.30;;;;;;;20.58;58.00;101703.72;5033140;28;20092;-60
2021/07/02 09:52:55;;;;;;;6.60;3.63;;;;;;;20.61;58.27;101705.31;5033550;28;20040;-59
2021/07/02 09:55:26;;;;;;;7.32;4.32;;;;;;;20.62;58.19;101699.06;5033486;28;20037;-59
2021/07/02 09:58:11;;;;;;;7.35;3.95;;;;;;;20.63;58.10;101703.38;5033023;28;20385;-59
2021/07/02 10:00:57;;;;;;;8.15;4.35;;;;;;;20.63;58.13;101706.88;5033642;28;20025;-60
2021/07/02 10:03:32;;;;;;;8.65;4.13;;;;;;;20.63;58.13;101711.31;5032562;28;20022;-58
2021/07/02 10:06:05;;;;;;;8.85;4.47;;;;;;;20.65;58.10;101723.53;5033493;28;20044;-60
2021/07/02 10:08:38;;;;;;;7.07;4.57;;;;;;;20.63;58.15;101717.47;5033440;28;20029;-59
2021/07/02 10:11:06;;;;;;;7.45;4.53;;;;;;;20.64;58.38;101718.34;5032750;28;20445;-59
2021/07/02 10:13:34;;;;;;;7.85;4.47;;;;;;;20.63;58.27;101720.13;5033153;28;20033;-60
2021/07/02 10:16:01;;;;;;;7.50;4.28;;;;;;;20.66;58.17;101729.66;5033275;28;20039;-59
2021/07/02 10:18:28;;;;;;;9.65;4.55;;;;;;;20.67;58.20;101725.22;5032046;28;20526;-60
2021/07/02 10:21:01;;;;;;;7.40;4.60;;;;;;;20.68;58.38;101725.09;5033570;28;20029;-60
2021/07/02 10:23:31;;;;;;;8.48;4.63;;;;;;;20.71;58.17;101729.28;5032768;28;20033;-59
2021/07/02 10:25:59;;;;;;;8.35;4.50;;;;;;;20.69;58.35;101732.06;5032565;28;20033;-59
2021/07/02 10:28:26;;;;;;;8.90;3.90;;;;;;;20.70;58.42;101736.41;5032777;28;20477;-58
2021/07/02 10:30:52;;;;;;;7.32;4.40;;;;;;;20.68;58.49;101735.69;5032596;28;20072;-59
2021/07/02 10:33:24;;;;;;;9.48;4.70;;;;;;;20.70;58.38;101740.88;5032549;28;20453;-59
2021/07/02 10:35:54;;;;;;;6.35;4.13;;;;;;;20.71;58.29;101742.53;5032501;28;20018;-60
2021/07/02 10:38:20;;;;;;;7.13;4.40;;;;;;;20.71;58.36;101745.19;5031595;28;20063;-59
2021/07/02 10:40:45;;;;;;;7.93;4.80;;;;;;;20.68;58.59;101737.47;5032723;28;20535;-57
2021/07/02 10:43:22;;;;;;;9.25;4.53;;;;;;;20.67;58.49;101731.34;5032653;28;20025;-59
2021/07/02 10:46:16;;;;;;;9.20;4.88;;;;;;;20.69;58.64;101733.88;5032155;28;20068;-59
2021/07/02 10:48:59;;;;;;;7.68;4.50;;;;;;;20.68;58.56;101732.19;5032677;28;20037;-59
2021/07/02 10:51:30;;;;;;;10.18;5.38;;;;;;;20.68;58.79;101734.81;5032311;28;20032;-59
2021/07/02 10:54:27;;;;;;;9.27;5.07;;;;;;;20.67;58.84;101736.66;5031506;28;20029;-58
2021/07/02 10:57:01;;;;;;;9.38;5.03;;;;;;;20.68;58.73;101732.19;5033393;28;20414;-60
2021/07/02 10:59:36;;;;;;;10.57;5.38;;;;;;;20.66;58.80;101734.94;5031622;28;20021;-60
2021/07/02 11:02:08;;;;;;;8.23;5.10;;;;;;;20.67;59.08;101735.81;5032801;28;20380;-61
2021/07/02 11:04:37;;;;;;;10.18;4.70;;;;;;;20.68;59.11;101735.69;5032331;28;20021;-59
2021/07/02 11:07:27;;;;;;;7.90;4.05;;;;;;;20.68;58.99;101727.75;5031777;28;20071;-60
2021/07/02 11:09:55;;;;;;;9.57;4.97;;;;;;;20.69;58.96;101732.06;5032595;28;20619;-58
2021/07/02 11:12:31;;;;;;;7.70;4.53;;;;;;;20.70;59.04;101730.28;5032232;28;20167;-61
2021/07/02 11:15:03;;;;;;;8.75;4.72;;;;;;;20.69;58.96;101731.22;5031705;28;20021;-60
2021/07/02 11:17:40;;;;;;;9.07;4.97;;;;;;;20.67;59.11;101735.81;5032129;28;20378;-58
2021/07/02 11:20:08;;;;;;;7.03;4.32;;;;;;;20.68;59.20;101726.88;5032331;28;20108;-60
2021/07/02 11:22:42;;;;;;;9.05;4.50;;;;;;;20.70;59.23;101730.28;5032172;28;20516;-61
2021/07/02 11:30:48;;;;;;;7.78;4.68;;;;;;;20.67;59.23;101725.22;5031686;28;20056;-61
2021/07/02 11:33:18;;;;;;;8.10;4.82;;;;;;;20.71;59.16;101734.59;5032225;28;20064;-63
2021/07/02 11:35:45;;;;;;;8.40;5.03;;;;;;;20.71;59.47;101739.88;5032078;28;20067;-61
2021/07/02 11:38:24;;;;;;;7.90;4.88;;;;;;;20.73;59.45;101735.31;5032870;28;20041;-62
2021/07/02 11:41:19;;;;;;;7.93;4.82;;;;;;;20.72;59.53;101733.63;5032266;28;20021;-60